Main page
METAR-TAF:

METAR-TAF

Airports :

Inverness, Scotland

Inverness Airport

latitude: 57-32N, longitude: 004-03W, elevation: 9 m

Current weather observation

The report was made 10 minutes ago, at 11:50 UTC
Wind 8 kt from the East/Northeast
Temperature 5°C
Humidity 93%
Pressure 1007 hPa
Visibility 10 km or more
Few clouds at a height of 800 ft
Broken clouds at a height of 3300 ft

METAR: EGPE 201150Z 06008KT 9999 FEW008 BKN033 05/04 Q1007

Time: 12:00 (12:00 UTC)

Forecast

The report was made 1 hour and 7 minutes ago, at 10:53 UTC
Forecast valid from 20 at 12 UTC to 20 at 21 UTC
Wind 8 kt from the East/Northeast
Visibility 10 km or more
Broken clouds at a height of 2000 ft
Probability 40% :
Temporary
from 20 at 12 UTC to 20 at 21 UTC
Visibility: 7000 m
Broken clouds at a height of 1400 ft
light rain

TAF: EGPE 201053Z 2012/2021 07008KT 9999 BKN020 PROB40 TEMPO 2012/2021 7000 -RA BKN014

Weather observations and forecasts of more than 4000 airports (METAR and TAF reports).

The available stations are represented by yellow and red dots on the map.

Hover mouse over dot to see the name of the station.

Then click to see weather observations and forecasts.

To change the map : click on the green buttons with a black cross to zoom in, on the green button with a dash to zoom out, or on the green arrows for adjacent maps.


METAR-TAF: